sensor_id;sensor_type;location;lat;lon;timestamp;pressure;altitude;pressure_sealevel;temperature;humidity
20027;BME280;10174;42.688;23.344;2023-07-29T00:00:32;95172.28;;;18.36;69.12
20027;BME280;10174;42.688;23.344;2023-07-29T00:02:57;95172.91;;;18.32;69.04
20027;BME280;10174;42.688;23.344;2023-07-29T00:05:23;95180.91;;;18.38;69.01
20027;BME280;10174;42.688;23.344;2023-07-29T00:07:48;95186.34;;;18.38;68.72
20027;BME280;10174;42.688;23.344;2023-07-29T00:10:13;95184.28;;;18.43;68.87
20027;BME280;10174;42.688;23.344;2023-07-29T00:12:39;95186.06;;;18.48;67.58
20027;BME280;10174;42.688;23.344;2023-07-29T00:15:05;95181.25;;;18.54;66.35
20027;BME280;10174;42.688;23.344;2023-07-29T00:17:30;95182.09;;;18.54;67.84
20027;BME280;10174;42.688;23.344;2023-07-29T00:19:56;95155.97;;;18.36;67.98
20027;BME280;10174;42.688;23.344;2023-07-29T00:22:21;95168.44;;;18.37;68.18
20027;BME280;10174;42.688;23.344;2023-07-29T00:24:52;95172.13;;;18.41;68.25
20027;BME280;10174;42.688;23.344;2023-07-29T00:27:18;95160.28;;;18.28;68.62
20027;BME280;10174;42.688;23.344;2023-07-29T00:29:44;95162.16;;;18.27;66.91
20027;BME280;10174;42.688;23.344;2023-07-29T00:32:09;95153.88;;;18.32;65.74
20027;BME280;10174;42.688;23.344;2023-07-29T00:34:34;95174.84;;;18.41;65.31
20027;BME280;10174;42.688;23.344;2023-07-29T00:37:00;95148.56;;;18.27;65.21
20027;BME280;10174;42.688;23.344;2023-07-29T00:39:25;95167.47;;;18.41;67.14
20027;BME280;10174;42.688;23.344;2023-07-29T00:41:50;95166.97;;;18.22;68.24
20027;BME280;10174;42.688;23.344;2023-07-29T00:44:16;95155.22;;;18.04;68.82
20027;BME280;10174;42.688;23.344;2023-07-29T00:46:42;95154.88;;;17.96;68.90
20027;BME280;10174;42.688;23.344;2023-07-29T00:49:09;95143.72;;;17.75;69.58
20027;BME280;10174;42.688;23.344;2023-07-29T00:51:34;95162.72;;;17.75;70.13
20027;BME280;10174;42.688;23.344;2023-07-29T00:54:00;95148.63;;;17.65;70.39
20027;BME280;10174;42.688;23.344;2023-07-29T00:56:26;95126.44;;;17.40;70.83
20027;BME280;10174;42.688;23.344;2023-07-29T00:58:51;95160.38;;;17.51;71.48
20027;BME280;10174;42.688;23.344;2023-07-29T01:01:23;95158.41;;;17.43;71.99
20027;BME280;10174;42.688;23.344;2023-07-29T01:03:49;95157.78;;;17.46;71.80
20027;BME280;10174;42.688;23.344;2023-07-29T01:06:34;95153.13;;;17.38;72.35
20027;BME280;10174;42.688;23.344;2023-07-29T01:09:09;95144.22;;;17.23;72.74
20027;BME280;10174;42.688;23.344;2023-07-29T01:16:53;95158.66;;;17.10;73.63
20027;BME280;10174;42.688;23.344;2023-07-29T01:19:46;95162.00;;;17.07;73.94
20027;BME280;10174;42.688;23.344;2023-07-29T01:22:15;95157.78;;;17.01;74.24
20027;BME280;10174;42.688;23.344;2023-07-29T01:24:41;95169.38;;;16.92;74.66
20027;BME280;10174;42.688;23.344;2023-07-29T01:27:07;95165.59;;;16.94;74.83
20027;BME280;10174;42.688;23.344;2023-07-29T01:29:32;95164.28;;;16.91;74.66
20027;BME280;10174;42.688;23.344;2023-07-29T01:32:04;95056.97;;;16.26;74.97
20027;BME280;10174;42.688;23.344;2023-07-29T01:34:48;95161.88;;;16.89;75.02
20027;BME280;10174;42.688;23.344;2023-07-29T01:37:19;95161.97;;;16.84;75.27
20027;BME280;10174;42.688;23.344;2023-07-29T01:39:49;95162.28;;;16.83;75.26
20027;BME280;10174;42.688;23.344;2023-07-29T01:42:15;95128.16;;;16.68;75.15
20027;BME280;10174;42.688;23.344;2023-07-29T01:44:41;95159.03;;;16.81;75.63
20027;BME280;10174;42.688;23.344;2023-07-29T01:47:08;95161.38;;;16.73;75.74
20027;BME280;10174;42.688;23.344;2023-07-29T01:49:33;95091.19;;;16.21;75.89
20027;BME280;10174;42.688;23.344;2023-07-29T01:51:58;95165.31;;;16.67;76.39
20027;BME280;10174;42.688;23.344;2023-07-29T01:54:24;95156.19;;;16.63;76.43
20027;BME280;10174;42.688;23.344;2023-07-29T01:56:49;95122.81;;;16.40;76.57
20027;BME280;10174;42.688;23.344;2023-07-29T01:59:16;95172.78;;;16.62;76.52
20027;BME280;10174;42.688;23.344;2023-07-29T02:01:41;95139.06;;;16.40;76.65
20027;BME280;10174;42.688;23.344;2023-07-29T02:04:07;95166.47;;;16.52;77.07
20027;BME280;10174;42.688;23.344;2023-07-29T02:06:33;95169.47;;;16.51;77.14
20027;BME280;10174;42.688;23.344;2023-07-29T02:08:58;95162.56;;;16.45;77.47
20027;BME280;10174;42.688;23.344;2023-07-29T02:11:24;95171.97;;;16.47;77.45
20027;BME280;10174;42.688;23.344;2023-07-29T02:13:56;95162.56;;;16.45;77.22
20027;BME280;10174;42.688;23.344;2023-07-29T02:16:22;95171.97;;;16.47;77.83
20027;BME280;10174;42.688;23.344;2023-07-29T02:18:50;95145.19;;;16.32;77.31
20027;BME280;10174;42.688;23.344;2023-07-29T02:21:16;95153.63;;;16.30;77.49
20027;BME280;10174;42.688;23.344;2023-07-29T02:23:42;95184.56;;;16.43;77.73
20027;BME280;10174;42.688;23.344;2023-07-29T02:26:07;95157.75;;;16.28;77.54
20027;BME280;10174;42.688;23.344;2023-07-29T02:28:33;95177.03;;;16.40;77.88
20027;BME280;10174;42.688;23.344;2023-07-29T02:31:23;95173.50;;;16.39;77.69
20027;BME280;10174;42.688;23.344;2023-07-29T02:33:49;95157.38;;;16.20;78.45
20027;BME280;10174;42.688;23.344;2023-07-29T02:36:15;95181.84;;;16.29;78.51
20027;BME280;10174;42.688;23.344;2023-07-29T02:38:41;95175.00;;;16.32;78.31
20027;BME280;10174;42.688;23.344;2023-07-29T02:41:08;95187.47;;;16.33;78.52
20027;BME280;10174;42.688;23.344;2023-07-29T02:43:35;95176.72;;;16.28;78.64
20027;BME280;10174;42.688;23.344;2023-07-29T02:46:01;95173.63;;;16.20;78.77
20027;BME280;10174;42.688;23.344;2023-07-29T02:48:26;95139.31;;;16.02;79.06
20027;BME280;10174;42.688;23.344;2023-07-29T02:50:53;95155.16;;;16.09;79.25
20027;BME280;10174;42.688;23.344;2023-07-29T02:53:18;95153.94;;;16.01;79.20
20027;BME280;10174;42.688;23.344;2023-07-29T02:55:44;95181.84;;;16.15;79.32
20027;BME280;10174;42.688;23.344;2023-07-29T02:58:09;95174.84;;;16.14;79.54
20027;BME280;10174;42.688;23.344;2023-07-29T03:00:34;95176.41;;;16.15;79.34
20027;BME280;10174;42.688;23.344;2023-07-29T03:03:00;95187.25;;;16.15;79.42
20027;BME280;10174;42.688;23.344;2023-07-29T03:05:29;95176.41;;;16.15;79.72
20027;BME280;10174;42.688;23.344;2023-07-29T03:07:54;95183.34;;;16.21;79.86
20027;BME280;10174;42.688;23.344;2023-07-29T03:10:19;95180.03;;;16.25;79.39
20027;BME280;10174;42.688;23.344;2023-07-29T03:12:46;95188.88;;;16.30;79.00
20027;BME280;10174;42.688;23.344;2023-07-29T03:15:12;95177.44;;;16.19;79.12
20027;BME280;10174;42.688;23.344;2023-07-29T03:17:37;95197.81;;;16.31;78.88
20027;BME280;10174;42.688;23.344;2023-07-29T03:20:03;95191.69;;;16.39;77.21
20027;BME280;10174;42.688;23.344;2023-07-29T03:22:28;95189.84;;;16.48;76.83
20027;BME280;10174;42.688;23.344;2023-07-29T03:24:53;95093.66;;;15.81;76.02
20027;BME280;10174;42.688;23.344;2023-07-29T03:27:19;95194.88;;;16.41;75.79
20027;BME280;10174;42.688;23.344;2023-07-29T03:29:44;95181.44;;;16.36;75.39
20027;BME280;10174;42.688;23.344;2023-07-29T03:32:11;95168.81;;;16.17;74.80
20027;BME280;10174;42.688;23.344;2023-07-29T03:34:36;95206.94;;;16.35;74.90
20027;BME280;10174;42.688;23.344;2023-07-29T03:37:01;95088.63;;;15.61;74.84
20027;BME280;10174;42.688;23.344;2023-07-29T03:39:27;95185.06;;;16.17;74.78
20027;BME280;10174;42.688;23.344;2023-07-29T03:41:52;95183.63;;;16.20;74.76
20027;BME280;10174;42.688;23.344;2023-07-29T03:44:18;95197.59;;;16.27;75.06
20027;BME280;10174;42.688;23.344;2023-07-29T03:46:44;95201.63;;;16.30;75.31
20027;BME280;10174;42.688;23.344;2023-07-29T03:49:10;95139.09;;;15.84;75.28
20027;BME280;10174;42.688;23.344;2023-07-29T03:51:35;95176.41;;;16.15;75.10
20027;BME280;10174;42.688;23.344;2023-07-29T03:54:01;95098.13;;;15.72;74.83
20027;BME280;10174;42.688;23.344;2023-07-29T03:56:26;95199.50;;;16.41;74.74
20027;BME280;10174;42.688;23.344;2023-07-29T03:58:52;95203.72;;;16.33;74.74
20027;BME280;10174;42.688;23.344;2023-07-29T04:01:18;95194.88;;;16.27;75.29
20027;BME280;10174;42.688;23.344;2023-07-29T04:03:45;95192.28;;;16.36;75.07
20027;BME280;10174;42.688;23.344;2023-07-29T04:06:11;95199.19;;;16.42;74.97
20027;BME280;10174;42.688;23.344;2023-07-29T04:08:37;95106.81;;;15.88;74.79
20027;BME280;10174;42.688;23.344;2023-07-29T04:11:02;95187.88;;;16.40;74.75
20027;BME280;10174;42.688;23.344;2023-07-29T04:13:27;95201.78;;;16.47;75.11
20027;BME280;10174;42.688;23.344;2023-07-29T04:15:53;95144.63;;;16.07;75.28
20027;BME280;10174;42.688;23.344;2023-07-29T04:18:18;95208.41;;;16.55;75.50
20027;BME280;10174;42.688;23.344;2023-07-29T04:20:44;95188.25;;;16.47;75.48
20027;BME280;10174;42.688;23.344;2023-07-29T04:23:10;95187.63;;;16.50;75.50
20027;BME280;10174;42.688;23.344;2023-07-29T04:25:35;95207.41;;;16.65;75.68
20027;BME280;10174;42.688;23.344;2023-07-29T04:28:00;95187.84;;;16.54;74.95
20027;BME280;10174;42.688;23.344;2023-07-29T04:30:28;95211.50;;;16.76;74.86
20027;BME280;10174;42.688;23.344;2023-07-29T04:32:53;95205.69;;;16.83;74.61
20027;BME280;10174;42.688;23.344;2023-07-29T04:35:19;95213.09;;;16.91;74.13
20027;BME280;10174;42.688;23.344;2023-07-29T04:37:44;95208.88;;;16.99;73.55
20027;BME280;10174;42.688;23.344;2023-07-29T04:40:10;95206.53;;;17.06;73.77
20027;BME280;10174;42.688;23.344;2023-07-29T04:42:36;95215.03;;;17.13;73.48
20027;BME280;10174;42.688;23.344;2023-07-29T04:45:02;95209.00;;;17.16;73.49
20027;BME280;10174;42.688;23.344;2023-07-29T04:47:28;95196.97;;;17.08;72.93
20027;BME280;10174;42.688;23.344;2023-07-29T04:49:53;95207.66;;;17.27;72.96
20027;BME280;10174;42.688;23.344;2023-07-29T04:52:19;95212.00;;;17.29;72.66
20027;BME280;10174;42.688;23.344;2023-07-29T04:54:44;95208.03;;;17.35;71.74
20027;BME280;10174;42.688;23.344;2023-07-29T04:57:10;95202.47;;;17.40;71.54
20027;BME280;10174;42.688;23.344;2023-07-29T04:59:35;95207.03;;;17.53;71.32
20027;BME280;10174;42.688;23.344;2023-07-29T05:02:01;95216.22;;;17.66;71.34
20027;BME280;10174;42.688;23.344;2023-07-29T05:04:26;95195.44;;;17.39;71.10
20027;BME280;10174;42.688;23.344;2023-07-29T05:06:51;95233.06;;;17.77;70.91
20027;BME280;10174;42.688;23.344;2023-07-29T05:09:18;95226.53;;;17.78;70.67
20027;BME280;10174;42.688;23.344;2023-07-29T05:11:45;95155.53;;;17.39;70.23
20027;BME280;10174;42.688;23.344;2023-07-29T05:14:14;95231.44;;;17.98;69.83
20027;BME280;10174;42.688;23.344;2023-07-29T05:16:40;95211.25;;;17.91;68.95
20027;BME280;10174;42.688;23.344;2023-07-29T05:19:06;95218.22;;;18.06;68.62
20027;BME280;10174;42.688;23.344;2023-07-29T05:21:31;95242.16;;;18.26;68.79
20027;BME280;10174;42.688;23.344;2023-07-29T05:23:56;95232.72;;;18.32;68.36
20027;BME280;10174;42.688;23.344;2023-07-29T05:26:22;95209.69;;;18.30;67.74
20027;BME280;10174;42.688;23.344;2023-07-29T05:28:48;95215.78;;;18.44;67.27
20027;BME280;10174;42.688;23.344;2023-07-29T05:31:13;95243.50;;;18.55;66.46
20027;BME280;10174;42.688;23.344;2023-07-29T05:33:38;95239.00;;;18.50;66.31
20027;BME280;10174;42.688;23.344;2023-07-29T05:36:04;95221.75;;;18.55;66.20
20027;BME280;10174;42.688;23.344;2023-07-29T05:38:30;95229.63;;;18.65;66.06
20027;BME280;10174;42.688;23.344;2023-07-29T05:40:55;95233.16;;;18.75;65.84
20027;BME280;10174;42.688;23.344;2023-07-29T05:43:21;95242.97;;;18.84;65.55
20027;BME280;10174;42.688;23.344;2023-07-29T05:45:46;95233.72;;;18.94;66.00
20027;BME280;10174;42.688;23.344;2023-07-29T05:48:12;95237.06;;;19.09;65.72
20027;BME280;10174;42.688;23.344;2023-07-29T05:50:37;95230.69;;;19.22;64.89
20027;BME280;10174;42.688;23.344;2023-07-29T05:53:02;95247.03;;;19.39;65.32
20027;BME280;10174;42.688;23.344;2023-07-29T05:55:28;95233.41;;;19.39;64.73
20027;BME280;10174;42.688;23.344;2023-07-29T05:57:54;95234.84;;;19.46;64.29
20027;BME280;10174;42.688;23.344;2023-07-29T06:00:20;95128.06;;;18.88;63.58
20027;BME280;10174;42.688;23.344;2023-07-29T06:02:45;95241.56;;;19.74;63.38
20027;BME280;10174;42.688;23.344;2023-07-29T06:05:11;95229.38;;;19.81;63.75
20027;BME280;10174;42.688;23.344;2023-07-29T06:07:37;95224.22;;;19.88;62.36
20027;BME280;10174;42.688;23.344;2023-07-29T06:10:03;95238.28;;;20.07;62.12
20027;BME280;10174;42.688;23.344;2023-07-29T06:12:28;95231.47;;;20.31;61.93
20027;BME280;10174;42.688;23.344;2023-07-29T06:14:54;95239.13;;;20.46;61.88
20027;BME280;10174;42.688;23.344;2023-07-29T06:17:19;95229.28;;;20.54;60.72
20027;BME280;10174;42.688;23.344;2023-07-29T06:19:44;95233.56;;;20.64;59.72
20027;BME280;10174;42.688;23.344;2023-07-29T06:22:10;95223.34;;;20.91;59.40
20027;BME280;10174;42.688;23.344;2023-07-29T06:24:35;95206.03;;;21.29;58.72
20027;BME280;10174;42.688;23.344;2023-07-29T06:27:01;95222.56;;;22.33;56.16
20027;BME280;10174;42.688;23.344;2023-07-29T06:29:26;95210.09;;;24.07;55.33
20027;BME280;10174;42.688;23.344;2023-07-29T06:31:51;95212.16;;;25.45;50.06
20027;BME280;10174;42.688;23.344;2023-07-29T06:34:17;95166.44;;;26.22;46.43
20027;BME280;10174;42.688;23.344;2023-07-29T06:36:43;95206.19;;;26.01;48.37
20027;BME280;10174;42.688;23.344;2023-07-29T06:39:09;95210.69;;;25.90;50.19
20027;BME280;10174;42.688;23.344;2023-07-29T06:41:35;95199.31;;;25.33;47.97
20027;BME280;10174;42.688;23.344;2023-07-29T06:44:00;95207.25;;;24.51;49.50
20027;BME280;10174;42.688;23.344;2023-07-29T06:46:26;95181.75;;;23.58;52.82
20027;BME280;10174;42.688;23.344;2023-07-29T06:48:51;95185.88;;;23.11;55.68
20027;BME280;10174;42.688;23.344;2023-07-29T06:51:17;95191.16;;;23.04;54.24
20027;BME280;10174;42.688;23.344;2023-07-29T06:53:42;95205.22;;;22.66;57.88
20027;BME280;10174;42.688;23.344;2023-07-29T06:56:08;95185.84;;;22.34;58.05
20027;BME280;10174;42.688;23.344;2023-07-29T06:58:34;95208.19;;;22.48;56.38
20027;BME280;10174;42.688;23.344;2023-07-29T07:00:59;95210.78;;;22.32;57.67
20027;BME280;10174;42.688;23.344;2023-07-29T07:03:25;95202.94;;;22.31;57.73
20027;BME280;10174;42.688;23.344;2023-07-29T07:05:50;95194.97;;;22.50;59.33
20027;BME280;10174;42.688;23.344;2023-07-29T07:08:16;95186.53;;;22.55;57.28
20027;BME280;10174;42.688;23.344;2023-07-29T07:10:41;95150.06;;;22.39;57.71
20027;BME280;10174;42.688;23.344;2023-07-29T07:13:07;95116.72;;;22.24;55.74
20027;BME280;10174;42.688;23.344;2023-07-29T07:15:32;95150.47;;;22.29;55.29
20027;BME280;10174;42.688;23.344;2023-07-29T07:17:57;95207.38;;;22.97;54.13
20027;BME280;10174;42.688;23.344;2023-07-29T07:20:23;95172.47;;;22.82;57.16
20027;BME280;10174;42.688;23.344;2023-07-29T07:22:48;95200.41;;;23.12;56.09
20027;BME280;10174;42.688;23.344;2023-07-29T07:25:13;95202.06;;;23.29;52.78
20027;BME280;10174;42.688;23.344;2023-07-29T07:27:39;95204.66;;;23.38;53.23
20027;BME280;10174;42.688;23.344;2023-07-29T07:30:05;95194.31;;;23.59;54.18
20027;BME280;10174;42.688;23.344;2023-07-29T07:32:30;95206.91;;;23.76;52.12
20027;BME280;10174;42.688;23.344;2023-07-29T07:34:56;95200.72;;;23.79;51.61
20027;BME280;10174;42.688;23.344;2023-07-29T07:37:21;95200.91;;;23.87;53.26
20027;BME280;10174;42.688;23.344;2023-07-29T07:39:47;95192.81;;;23.90;50.17
20027;BME280;10174;42.688;23.344;2023-07-29T07:42:12;95158.78;;;23.79;50.96
20027;BME280;10174;42.688;23.344;2023-07-29T07:44:37;95181.22;;;23.97;50.96
20027;BME280;10174;42.688;23.344;2023-07-29T07:47:03;95191.75;;;24.11;51.56
20027;BME280;10174;42.688;23.344;2023-07-29T07:49:28;95198.91;;;23.99;51.34
20027;BME280;10174;42.688;23.344;2023-07-29T07:51:54;95193.34;;;24.12;53.02
20027;BME280;10174;42.688;23.344;2023-07-29T07:54:19;95194.97;;;24.13;50.87
20027;BME280;10174;42.688;23.344;2023-07-29T07:56:44;95199.09;;;24.39;50.62
20027;BME280;10174;42.688;23.344;2023-07-29T07:59:11;95193.19;;;24.36;49.07
20027;BME280;10174;42.688;23.344;2023-07-29T08:01:38;95197.72;;;24.45;48.94
20027;BME280;10174;42.688;23.344;2023-07-29T08:04:04;95197.84;;;24.52;47.63
20027;BME280;10174;42.688;23.344;2023-07-29T08:06:30;95205.19;;;24.80;47.17
20027;BME280;10174;42.688;23.344;2023-07-29T08:08:55;95154.50;;;24.93;46.51
20027;BME280;10174;42.688;23.344;2023-07-29T08:11:21;95187.34;;;25.25;46.87
20027;BME280;10174;42.688;23.344;2023-07-29T08:13:46;95198.53;;;25.52;46.05
20027;BME280;10174;42.688;23.344;2023-07-29T08:16:12;95163.44;;;25.65;46.51
20027;BME280;10174;42.688;23.344;2023-07-29T08:18:38;95147.47;;;26.17;43.70
20027;BME280;10174;42.688;23.344;2023-07-29T08:21:03;95190.97;;;26.30;44.71
20027;BME280;10174;42.688;23.344;2023-07-29T08:23:33;95201.06;;;26.23;45.13
20027;BME280;10174;42.688;23.344;2023-07-29T08:26:01;95194.38;;;26.70;41.94
20027;BME280;10174;42.688;23.344;2023-07-29T08:30:56;95189.97;;;26.65;43.18
20027;BME280;10174;42.688;23.344;2023-07-29T08:33:22;95191.44;;;26.59;43.83
20027;BME280;10174;42.688;23.344;2023-07-29T08:35:47;95093.66;;;25.96;41.83
20027;BME280;10174;42.688;23.344;2023-07-29T08:38:13;95186.59;;;26.76;41.88
20027;BME280;10174;42.688;23.344;2023-07-29T08:40:45;95116.69;;;26.61;43.72
20027;BME280;10174;42.688;23.344;2023-07-29T08:43:12;95183.06;;;28.00;38.75
20027;BME280;10174;42.688;23.344;2023-07-29T08:45:39;95186.41;;;28.20;37.86
20027;BME280;10174;42.688;23.344;2023-07-29T08:48:09;95181.03;;;28.35;37.97
20027;BME280;10174;42.688;23.344;2023-07-29T08:50:36;95174.44;;;28.99;37.88
20027;BME280;10174;42.688;23.344;2023-07-29T08:53:04;95138.44;;;29.76;34.55
20027;BME280;10174;42.688;23.344;2023-07-29T08:55:31;95157.19;;;31.90;31.46
20027;BME280;10174;42.688;23.344;2023-07-29T08:57:57;95155.25;;;33.33;29.41
20027;BME280;10174;42.688;23.344;2023-07-29T09:00:23;95150.97;;;35.16;27.63
20027;BME280;10174;42.688;23.344;2023-07-29T09:02:48;95154.09;;;35.18;27.20
20027;BME280;10174;42.688;23.344;2023-07-29T09:05:13;95075.69;;;34.69;28.26
20027;BME280;10174;42.688;23.344;2023-07-29T09:07:40;95153.16;;;36.05;25.51
20027;BME280;10174;42.688;23.344;2023-07-29T09:10:08;95144.47;;;34.79;24.79
20027;BME280;10174;42.688;23.344;2023-07-29T09:12:35;95117.38;;;33.43;26.88
20027;BME280;10174;42.688;23.344;2023-07-29T09:15:00;95147.00;;;33.57;27.09
20027;BME280;10174;42.688;23.344;2023-07-29T09:17:25;95091.44;;;33.15;26.62
20027;BME280;10174;42.688;23.344;2023-07-29T09:19:51;95138.41;;;34.60;25.59
20027;BME280;10174;42.688;23.344;2023-07-29T09:22:18;95139.97;;;35.89;23.83
20027;BME280;10174;42.688;23.344;2023-07-29T09:24:45;95128.59;;;37.28;23.13
20027;BME280;10174;42.688;23.344;2023-07-29T09:27:23;95122.63;;;36.14;23.56
20027;BME280;10174;42.688;23.344;2023-07-29T09:29:48;95126.16;;;34.78;23.38
20027;BME280;10174;42.688;23.344;2023-07-29T09:32:21;95120.81;;;34.40;23.78
20027;BME280;10174;42.688;23.344;2023-07-29T09:34:47;95126.59;;;34.76;24.27
20027;BME280;10174;42.688;23.344;2023-07-29T09:37:31;95127.00;;;35.19;24.41
20027;BME280;10174;42.688;23.344;2023-07-29T09:39:57;95121.28;;;34.58;23.56
20027;BME280;10174;42.688;23.344;2023-07-29T09:42:22;95122.03;;;36.23;22.37
20027;BME280;10174;42.688;23.344;2023-07-29T09:44:49;95115.75;;;36.68;22.52
20027;BME280;10174;42.688;23.344;2023-07-29T09:47:22;95107.00;;;36.66;21.34
20027;BME280;10174;42.688;23.344;2023-07-29T09:49:48;95113.25;;;37.03;21.38
20027;BME280;10174;42.688;23.344;2023-07-29T09:52:18;95107.59;;;36.74;21.64
20027;BME280;10174;42.688;23.344;2023-07-29T09:54:44;95100.00;;;36.91;21.64
20027;BME280;10174;42.688;23.344;2023-07-29T09:57:11;95106.72;;;35.95;22.21
20027;BME280;10174;42.688;23.344;2023-07-29T09:59:36;95102.78;;;34.92;22.31
20027;BME280;10174;42.688;23.344;2023-07-29T10:02:02;95092.16;;;35.47;23.72
20027;BME280;10174;42.688;23.344;2023-07-29T10:04:28;95101.34;;;35.84;22.84
20027;BME280;10174;42.688;23.344;2023-07-29T10:06:54;95061.81;;;36.68;21.32
20027;BME280;10174;42.688;23.344;2023-07-29T10:09:22;95103.88;;;36.31;21.49
20027;BME280;10174;42.688;23.344;2023-07-29T10:11:49;95052.34;;;36.32;21.26
20027;BME280;10174;42.688;23.344;2023-07-29T10:14:16;95099.06;;;37.11;21.15
20027;BME280;10174;42.688;23.344;2023-07-29T10:16:42;95100.31;;;37.10;21.18
20027;BME280;10174;42.688;23.344;2023-07-29T10:19:10;95070.97;;;37.56;20.75
20027;BME280;10174;42.688;23.344;2023-07-29T10:21:38;95090.69;;;37.53;20.65
20027;BME280;10174;42.688;23.344;2023-07-29T10:24:06;95087.63;;;36.43;21.55
20027;BME280;10174;42.688;23.344;2023-07-29T10:26:36;95073.78;;;36.19;21.60
20027;BME280;10174;42.688;23.344;2023-07-29T10:29:07;95062.78;;;37.36;21.36
20027;BME280;10174;42.688;23.344;2023-07-29T10:31:37;95021.88;;;36.84;21.86
20027;BME280;10174;42.688;23.344;2023-07-29T10:34:03;95064.19;;;37.70;20.55
20027;BME280;10174;42.688;23.344;2023-07-29T10:36:29;95057.69;;;36.89;22.18
20027;BME280;10174;42.688;23.344;2023-07-29T10:38:55;95049.84;;;36.84;22.49
20027;BME280;10174;42.688;23.344;2023-07-29T10:41:22;95057.13;;;35.99;23.47
20027;BME280;10174;42.688;23.344;2023-07-29T10:43:48;95049.69;;;36.25;22.85
20027;BME280;10174;42.688;23.344;2023-07-29T10:46:17;95020.00;;;35.98;22.79
20027;BME280;10174;42.688;23.344;2023-07-29T10:48:51;95043.72;;;37.31;21.98
20027;BME280;10174;42.688;23.344;2023-07-29T10:51:29;95047.63;;;37.89;21.09
20027;BME280;10174;42.688;23.344;2023-07-29T10:56:36;94999.31;;;39.78;18.35
20027;BME280;10174;42.688;23.344;2023-07-29T11:01:39;95035.91;;;36.34;21.33
20027;BME280;10174;42.688;23.344;2023-07-29T11:15:03;95001.59;;;38.73;20.35
20027;BME280;10174;42.688;23.344;2023-07-29T11:17:33;95012.59;;;38.32;19.67
20027;BME280;10174;42.688;23.344;2023-07-29T11:20:03;95017.25;;;39.49;18.96
20027;BME280;10174;42.688;23.344;2023-07-29T11:22:29;95005.94;;;39.31;19.47
20027;BME280;10174;42.688;23.344;2023-07-29T11:24:55;95014.66;;;37.93;20.19
20027;BME280;10174;42.688;23.344;2023-07-29T11:27:21;95020.66;;;37.27;20.19
20027;BME280;10174;42.688;23.344;2023-07-29T11:29:47;95017.72;;;37.86;19.65
20027;BME280;10174;42.688;23.344;2023-07-29T11:32:12;95021.19;;;37.77;19.84
20027;BME280;10174;42.688;23.344;2023-07-29T11:34:38;95007.69;;;38.10;19.53
20027;BME280;10174;42.688;23.344;2023-07-29T11:37:05;95008.28;;;37.12;20.18
20027;BME280;10174;42.688;23.344;2023-07-29T11:39:32;95006.28;;;36.37;20.49
20027;BME280;10174;42.688;23.344;2023-07-29T11:41:57;94985.41;;;34.63;22.39
20027;BME280;10174;42.688;23.344;2023-07-29T11:44:23;94982.47;;;33.51;23.90
20027;BME280;10174;42.688;23.344;2023-07-29T11:46:49;94994.91;;;33.12;23.70
20027;BME280;10174;42.688;23.344;2023-07-29T11:49:15;94977.53;;;32.32;24.58
20027;BME280;10174;42.688;23.344;2023-07-29T11:51:41;94962.28;;;32.47;24.35
20027;BME280;10174;42.688;23.344;2023-07-29T11:54:07;94995.09;;;32.60;25.24
20027;BME280;10174;42.688;23.344;2023-07-29T11:56:33;94999.19;;;32.06;24.45
20027;BME280;10174;42.688;23.344;2023-07-29T11:58:59;94999.56;;;31.56;25.77
20027;BME280;10174;42.688;23.344;2023-07-29T12:01:25;94984.41;;;31.71;25.68
20027;BME280;10174;42.688;23.344;2023-07-29T12:03:51;94994.81;;;31.60;26.69
20027;BME280;10174;42.688;23.344;2023-07-29T12:06:16;94982.56;;;31.47;26.51
20027;BME280;10174;42.688;23.344;2023-07-29T12:08:42;94983.34;;;31.47;26.67
20027;BME280;10174;42.688;23.344;2023-07-29T12:11:09;94975.03;;;31.51;26.13
20027;BME280;10174;42.688;23.344;2023-07-29T12:13:36;94977.72;;;31.65;26.07
20027;BME280;10174;42.688;23.344;2023-07-29T12:16:02;94974.84;;;31.79;26.27
20027;BME280;10174;42.688;23.344;2023-07-29T12:18:36;94978.25;;;31.42;25.81
20027;BME280;10174;42.688;23.344;2023-07-29T12:21:02;94950.69;;;31.17;25.77
20027;BME280;10174;42.688;23.344;2023-07-29T12:23:29;94970.44;;;31.22;26.84
20027;BME280;10174;42.688;23.344;2023-07-29T12:25:58;94973.06;;;31.44;25.83
20027;BME280;10174;42.688;23.344;2023-07-29T12:28:25;94953.63;;;31.48;25.75
20027;BME280;10174;42.688;23.344;2023-07-29T12:30:54;94965.47;;;31.52;26.04
20027;BME280;10174;42.688;23.344;2023-07-29T12:33:35;94887.91;;;31.37;25.78
20027;BME280;10174;42.688;23.344;2023-07-29T12:36:01;94957.19;;;32.01;25.94
20027;BME280;10174;42.688;23.344;2023-07-29T12:38:27;94959.47;;;32.09;25.32
20027;BME280;10174;42.688;23.344;2023-07-29T12:40:53;94946.13;;;31.97;25.91
20027;BME280;10174;42.688;23.344;2023-07-29T12:43:19;94956.22;;;31.76;26.58
20027;BME280;10174;42.688;23.344;2023-07-29T12:45:44;94963.81;;;31.69;25.32
20027;BME280;10174;42.688;23.344;2023-07-29T12:48:10;94959.66;;;31.35;24.42
20027;BME280;10174;42.688;23.344;2023-07-29T12:50:36;94951.44;;;31.21;24.25
20027;BME280;10174;42.688;23.344;2023-07-29T12:53:02;94932.47;;;31.08;24.86
20027;BME280;10174;42.688;23.344;2023-07-29T12:55:28;94907.16;;;31.03;24.73
20027;BME280;10174;42.688;23.344;2023-07-29T12:57:53;94948.97;;;31.34;24.76
20027;BME280;10174;42.688;23.344;2023-07-29T13:00:18;94952.81;;;31.47;24.56
20027;BME280;10174;42.688;23.344;2023-07-29T13:02:44;94951.22;;;31.50;24.53
20027;BME280;10174;42.688;23.344;2023-07-29T13:05:10;94951.34;;;31.35;25.06
20027;BME280;10174;42.688;23.344;2023-07-29T13:07:40;94963.66;;;31.31;24.50
20027;BME280;10174;42.688;23.344;2023-07-29T13:10:06;94919.81;;;31.07;25.46